createdAt,value
2018-05-04T00:03:31.285Z,1.51
2018-05-04T00:09:26.273Z,1.73
2018-05-04T00:15:21.330Z,1.53
2018-05-04T00:21:16.263Z,1.68
2018-05-04T00:27:11.334Z,1.44
2018-05-04T00:33:06.260Z,1.44
2018-05-04T00:39:01.275Z,1.79
2018-05-04T00:44:56.318Z,2.27
2018-05-04T00:50:51.268Z,2.59
2018-05-04T00:56:46.317Z,2.51
2018-05-04T01:02:41.275Z,2.83
2018-05-04T01:08:36.270Z,3.95
2018-05-04T01:14:31.301Z,3.06
2018-05-04T01:20:26.323Z,3.45
2018-05-04T01:26:21.290Z,3.69
2018-05-04T01:32:16.260Z,4.11
2018-05-04T01:38:11.294Z,3.79
2018-05-04T01:44:06.298Z,3.64
2018-05-04T01:50:01.261Z,4.91
2018-05-04T01:55:56.280Z,3.57
2018-05-04T02:01:51.291Z,3.66
2018-05-04T02:07:46.332Z,4.54
2018-05-04T02:13:41.293Z,4.62
2018-05-04T02:19:36.296Z,4.14
2018-05-04T02:25:31.258Z,4.78
2018-05-04T02:31:26.330Z,5.22
2018-05-04T02:37:21.308Z,4.03
2018-05-04T02:43:16.320Z,4.71
2018-05-04T02:49:11.281Z,4.32
2018-05-04T02:55:06.330Z,4.74
2018-05-04T03:01:01.314Z,3.05
2018-05-04T03:06:56.292Z,3.34
2018-05-04T03:12:51.316Z,3.25
2018-05-04T03:18:46.266Z,3.09
2018-05-04T03:24:41.311Z,2.96
2018-05-04T03:30:36.323Z,2.9
2018-05-04T03:36:31.305Z,2.63
2018-05-04T03:42:26.315Z,2.74
2018-05-04T03:48:21.317Z,2.8
2018-05-04T03:54:16.344Z,2.58
2018-05-04T04:00:11.360Z,2.3
2018-05-04T04:06:06.287Z,2.69
2018-05-04T04:12:01.319Z,1.94
2018-05-04T04:17:56.472Z,2.16
2018-05-04T04:23:51.378Z,2.07
2018-05-04T04:29:46.349Z,2.75
2018-05-04T04:35:41.301Z,2.82
2018-05-04T04:41:36.327Z,2.35
2018-05-04T04:47:31.343Z,2.92
2018-05-04T04:53:26.337Z,2.95
2018-05-04T04:59:21.299Z,3.58
2018-05-04T05:05:16.336Z,2.81
2018-05-04T05:11:11.313Z,2.85
2018-05-04T05:17:06.303Z,2.99
2018-05-04T05:23:01.291Z,2.91
2018-05-04T05:28:56.351Z,2.95
2018-05-04T05:34:51.323Z,2.66
2018-05-04T05:40:46.317Z,3.64
2018-05-04T05:46:41.295Z,2.9
2018-05-04T05:52:36.327Z,3.32
2018-05-04T05:58:31.430Z,2.96
2018-05-04T06:04:26.362Z,3.63
2018-05-04T06:10:21.352Z,3.94
2018-05-04T06:16:16.365Z,3.75
2018-05-04T06:22:11.336Z,3.18
2018-05-04T06:28:06.351Z,3.17
2018-05-04T06:34:01.340Z,3.84
2018-05-04T06:39:56.396Z,4.19
2018-05-04T06:45:51.380Z,3.1
2018-05-04T06:51:46.366Z,3.34
2018-05-04T06:57:41.336Z,3.96
2018-05-04T07:03:36.389Z,4.15
2018-05-04T07:09:31.322Z,4.21
2018-05-04T07:15:26.361Z,3.99
2018-05-04T07:21:21.334Z,3.54
2018-05-04T07:27:16.335Z,3.36
2018-05-04T07:33:11.358Z,3.84
2018-05-04T07:39:06.314Z,3.47
2018-05-04T07:45:01.380Z,3.94
2018-05-04T07:50:56.339Z,4.6
2018-05-04T07:56:51.346Z,4.12
2018-05-04T08:02:46.379Z,3.42
2018-05-04T08:08:41.367Z,4.02
2018-05-04T08:14:36.356Z,4.34
2018-05-04T08:20:31.385Z,2.46
2018-05-04T08:26:26.338Z,2.9
2018-05-04T08:32:21.330Z,3.21
2018-05-04T08:38:16.340Z,2.56
2018-05-04T08:44:11.370Z,2.76
2018-05-04T08:50:06.357Z,2.81
2018-05-04T08:56:01.357Z,3.2
2018-05-04T09:01:56.359Z,2.77
2018-05-04T09:07:51.354Z,3.37
2018-05-04T09:13:46.346Z,2.89
2018-05-04T09:19:41.366Z,3.71
2018-05-04T09:25:36.412Z,3.13
2018-05-04T09:31:31.348Z,2.46
2018-05-04T09:37:26.363Z,2.9
2018-05-04T09:43:21.387Z,2.85
2018-05-04T09:49:16.414Z,2.55
2018-05-04T09:55:11.391Z,2.29
2018-05-04T10:01:06.398Z,1.73
2018-05-04T10:07:01.377Z,2.08
2018-05-04T10:12:56.385Z,1.98
2018-05-04T10:18:51.359Z,2.58
2018-05-04T10:24:46.470Z,2.21
2018-05-04T10:36:36.427Z,2.19
2018-05-04T10:36:36.486Z,2.56
2018-05-04T10:42:31.387Z,2.43
2018-05-04T10:48:26.426Z,2.71
2018-05-04T10:54:21.393Z,2.07
2018-05-04T11:00:16.396Z,2.3
2018-05-04T11:06:11.394Z,2.7
2018-05-04T11:12:06.369Z,2.12
2018-05-04T11:18:01.448Z,1.95
2018-05-04T11:23:56.435Z,2.29
2018-05-04T11:29:51.426Z,2.06
2018-05-04T11:35:46.479Z,1.86
2018-05-04T11:41:41.401Z,1.99
2018-05-04T11:47:36.519Z,2.04
2018-05-04T11:53:31.439Z,2.25
2018-05-04T11:59:26.504Z,1.94
2018-05-04T12:05:21.401Z,2.19
2018-05-04T12:11:16.413Z,1.91
2018-05-04T12:17:11.461Z,1.7
2018-05-04T12:23:06.414Z,2.55
2018-05-04T12:29:01.396Z,1.74
2018-05-04T12:34:56.401Z,1.86
2018-05-04T12:40:51.469Z,1.86
2018-05-04T12:46:46.386Z,1.84
2018-05-04T12:52:41.403Z,1.6
2018-05-04T12:58:36.485Z,1.61
2018-05-04T13:04:31.478Z,1.87
2018-05-04T13:10:26.452Z,1.23
2018-05-04T13:16:21.442Z,1.42
2018-05-04T13:22:16.392Z,1.11
2018-05-04T13:28:11.434Z,1.29
2018-05-04T13:34:06.449Z,1.27
2018-05-04T13:40:01.418Z,1.76
2018-05-04T13:45:56.433Z,1.68
2018-05-04T13:51:51.440Z,1.81
2018-05-04T13:57:46.437Z,2.08
2018-05-04T14:03:41.436Z,2.03
2018-05-04T14:09:36.420Z,1.9
2018-05-04T14:15:31.433Z,2.28
2018-05-04T14:21:26.401Z,2.07
2018-05-04T14:27:21.524Z,2.25
2018-05-04T14:33:16.421Z,2.25
2018-05-04T14:39:11.465Z,1.93
2018-05-04T14:45:06.408Z,2.16
2018-05-04T14:51:01.452Z,1.86
2018-05-04T14:56:56.430Z,2.33
2018-05-04T15:02:51.459Z,2.06
2018-05-04T15:08:46.504Z,2.36
2018-05-04T15:14:41.443Z,2.31
2018-05-04T15:20:36.486Z,2.01
2018-05-04T15:26:31.430Z,2.42
2018-05-04T15:32:26.446Z,2.12
2018-05-04T15:38:21.499Z,1.8
2018-05-04T15:44:16.418Z,2.33
2018-05-04T15:50:11.425Z,2.46
2018-05-04T15:56:06.444Z,2.67
2018-05-04T16:02:01.461Z,1.96
2018-05-04T16:07:56.442Z,2.13
2018-05-04T16:13:51.462Z,2.24
2018-05-04T16:19:46.450Z,2.5
2018-05-04T16:25:41.446Z,3.34
2018-05-04T16:31:36.428Z,2.23
2018-05-04T16:37:31.462Z,2.36
2018-05-04T16:43:26.501Z,2.03
2018-05-04T16:49:21.456Z,1.79
2018-05-04T16:55:16.472Z,1.65
2018-05-04T17:01:11.461Z,1.91
2018-05-04T17:07:06.481Z,1.71
2018-05-04T17:13:01.497Z,1.54
2018-05-04T17:18:56.477Z,1.93
2018-05-04T17:24:51.498Z,2.4
2018-05-04T17:30:46.483Z,1.86
2018-05-04T17:36:41.458Z,1.58
2018-05-04T17:42:36.467Z,1.86
2018-05-04T17:48:31.512Z,2.14
2018-05-04T17:54:26.534Z,2.24
2018-05-04T18:00:21.460Z,2.25
2018-05-04T18:06:16.439Z,2.54
2018-05-04T18:12:11.471Z,2.95
2018-05-04T18:18:06.465Z,2.45
2018-05-04T18:24:01.505Z,2.64
2018-05-04T18:29:56.464Z,2.54
2018-05-04T18:35:51.482Z,2.59
2018-05-04T18:41:46.480Z,2.42
2018-05-04T18:47:41.453Z,2.2
2018-05-04T18:53:36.462Z,2.39
2018-05-04T18:59:31.532Z,1.78
2018-05-04T19:05:26.475Z,2.61
2018-05-04T19:11:21.529Z,1.89
2018-05-04T19:17:16.503Z,2.04
2018-05-04T19:23:11.489Z,2.13
2018-05-04T19:29:06.599Z,2.13
2018-05-04T19:35:01.502Z,1.88
2018-05-04T19:40:56.455Z,1.91
2018-05-04T19:46:51.489Z,1.55
2018-05-04T19:52:46.450Z,1.66
2018-05-04T19:58:41.507Z,2.24
2018-05-04T20:04:36.470Z,2.19
2018-05-04T20:10:31.455Z,2.89
2018-05-04T20:16:26.529Z,2.41
2018-05-04T20:22:21.506Z,2.83
2018-05-04T20:28:16.475Z,2.8
2018-05-04T20:34:11.493Z,3.1
2018-05-04T20:40:06.462Z,3.52
2018-05-04T20:46:01.474Z,3.12
2018-05-04T20:51:56.538Z,3.67
2018-05-04T20:57:51.448Z,3.31
2018-05-04T21:03:46.490Z,3.74
2018-05-04T21:09:41.483Z,2.84
2018-05-04T21:15:36.453Z,3.73
2018-05-04T21:21:31.516Z,3.12
2018-05-04T21:27:26.523Z,3.2
2018-05-04T21:33:21.488Z,2.87
2018-05-04T21:39:16.534Z,2.92
2018-05-04T21:45:11.524Z,3.23
2018-05-04T21:51:06.502Z,2.54
2018-05-04T21:57:01.482Z,2.13
2018-05-04T22:02:56.532Z,2.82
2018-05-04T22:08:51.551Z,2.88
2018-05-04T22:14:46.475Z,2.79
2018-05-04T22:20:41.496Z,3.2
2018-05-04T22:26:36.535Z,2.42
2018-05-04T22:32:31.484Z,2.9
2018-05-04T22:38:26.497Z,3.17
2018-05-04T22:44:21.506Z,2.56
2018-05-04T22:50:16.479Z,3.23
2018-05-04T22:56:11.492Z,3.25
2018-05-04T23:02:06.475Z,2.94
2018-05-04T23:08:01.485Z,2.75
2018-05-04T23:13:56.453Z,2.98
2018-05-04T23:19:51.458Z,3.54
2018-05-04T23:25:46.483Z,3
2018-05-04T23:31:41.481Z,3.12
2018-05-04T23:37:36.472Z,3.05
2018-05-04T23:43:31.482Z,3.01
2018-05-04T23:49:26.453Z,4.12
2018-05-04T23:55:21.476Z,2.98
